Nathaniel B. Palmer — WBP3210 — position and weather

sailwx.info

Track history (hours):
 
Tides and Currents Weather Stations Pressure Air Temp Water Temp Dewpoint Dewpoint Depression Visibility Wind Speed Wind Dir Waves Ship Positions

Oceanographic research ship Nathaniel B. Palmer (USA)

Contact: Ethan Norris, ethan.norris.contractor@usap.gov

Detailed information on ship capabilities available from University of Delaware's Ocean Information Center and ARCUS's ALIAS (Arctic Logistics Information and Support) project.

Owner: OFFSHORE SERVICE VESSELS, GALLIANO, LA. More information available from US FCC via Universal Licensing System and Coast Guard Vessel Documentation Center.

Last reported at 2017-Nov-19 02:00 UTC. Time now 2017-Nov-19 03:14 UTC.
Position S 53°06' W 070°54'.

Type: Other ship. MMSI: 366610000.

Wind from 240 at 15 knots

Barometer 1000.5 mb
Air temperature 2.6 ° C
Water temperature -0.0 ° C

Date/timePositionNaut miles runAvg speedWind from/ knotsBaromVisibWave heightAir tempDewpointWater temp
2017-Nov-19 02:00S 53°06' W 070°54'0 0.0 240 / 151000.5 2.6 -0.0
2017-Nov-19 01:00S 53°06' W 070°54'4 3.6 250 / 141000.0 3.2 -0.0
2017-Nov-19 00:00S 53°06' W 070°48'0 0.0 240 / 91000.1 2.9 -0.0
2017-Nov-18 23:00S 53°06' W 070°48'0 0.0 250 / 21999.4 3.0 -0.0
2017-Nov-18 22:00S 53°06' W 070°48'0 0.0 250 / 21998.5 3.1 -0.0
2017-Nov-18 21:00S 53°06' W 070°48'0 0.0 260 / 24997.8 3.8 -0.0
2017-Nov-18 20:00S 53°06' W 070°48'0 0.0 230 / 29996.9 5.6 -0.0
2017-Nov-18 19:00S 53°06' W 070°48'0 0.0 250 / 27996.2 4.3 -0.0
2017-Nov-18 18:00S 53°06' W 070°48'0 0.0 240 / 29996.1 4.0 -0.0
2017-Nov-18 17:00S 53°06' W 070°48'0 0.0 250 / 27995.3 4.6 -0.0
2017-Nov-18 16:00S 53°06' W 070°48'0 0.0 260 / 26995.2 4.6 -0.0
2017-Nov-18 15:00S 53°06' W 070°48'0 0.0 250 / 25995.3 3.7 -0.0
2017-Nov-18 14:00S 53°06' W 070°48'0 0.0 250 / 27994.7 6.1 -0.0
2017-Nov-18 13:00S 53°06' W 070°48'   260 / 29994.6 6.1 -0.0
2017-Nov-13 14:00S 53°06' W 070°54'0 0.0 070 / 91006.3 7.8 -0.0
2017-Nov-13 13:00S 53°06' W 070°54'0 0.0 100 / 41007.0 8.8 -0.0
2017-Nov-13 12:00S 53°06' W 070°54'0 0.0 260 / 51007.6 8.2 -0.0
2017-Nov-13 11:00S 53°06' W 070°54'0 0.0 290 / 71008.2 7.8 -0.0
2017-Nov-13 10:00S 53°06' W 070°54'0 0.0 280 / 61008.3 6.4 -0.0
2017-Nov-13 09:00S 53°06' W 070°54'0 0.0 260 / 31008.4 6.7 -0.0
2017-Nov-13 08:00S 53°06' W 070°54'0 0.0 220 / 61008.5 7.4 -0.0
2017-Nov-13 07:00S 53°06' W 070°54'0 0.0 220 / 121008.1 7.5 -0.0
2017-Nov-13 06:00S 53°06' W 070°54'0 0.0 260 / 81008.4 7.5 -0.0
2017-Nov-13 05:00S 53°06' W 070°54'0 0.0 220 / 81008.7 7.6 -0.0
2017-Nov-13 04:00S 53°06' W 070°54'0 0.0 180 / 61008.7 7.7 -0.0
2017-Nov-13 03:00S 53°06' W 070°54'0 0.0 210 / 41008.4 8.1 -0.0
2017-Nov-13 02:00S 53°06' W 070°54'0 0.0 260 / 111008.1 8.4 -0.0
2017-Nov-13 01:00S 53°06' W 070°54'0 0.0 250 / 111007.9 9.1 -0.0
2017-Nov-13 00:00S 53°06' W 070°54'0 0.0 260 / 121007.4 10.2 -0.0
2017-Nov-12 23:00S 53°06' W 070°54'0 0.0 260 / 111007.0 10.7 -0.0
2017-Nov-12 22:00S 53°06' W 070°54'0 0.0 250 / 131006.4 10.8 -0.0
2017-Nov-12 21:00S 53°06' W 070°54'0 0.0 260 / 161006.1 11.2 -0.0
2017-Nov-12 20:00S 53°06' W 070°54'0 0.0 260 / 151005.5 11.3 -0.0
2017-Nov-12 19:00S 53°06' W 070°54'0 0.0 260 / 131005.4 10.8 -0.0
2017-Nov-12 18:00S 53°06' W 070°54'0 0.0 050 / 71005.5 8.2 -0.0
2017-Nov-12 17:00S 53°06' W 070°54'0 0.0 090 / 61005.5 7.4 -0.0
2017-Nov-12 16:00S 53°06' W 070°54'0 0.0 100 / 71005.2 7.3 -0.0
2017-Nov-12 15:00S 53°06' W 070°54'0 0.0 230 / 91004.7 8.6 -0.0
2017-Nov-12 14:00S 53°06' W 070°54'0 0.0 250 / 71004.4 8.5 -0.0
2017-Nov-12 13:00S 53°06' W 070°54'0 0.0 160 / 111003.7 7.1 -0.0
2017-Nov-12 12:00S 53°06' W 070°54'0 0.0 210 / 81002.9 8.3 -0.0
2017-Nov-12 11:00S 53°06' W 070°54'0 0.0 220 / 71002.2 6.5 -0.0
2017-Nov-12 10:00S 53°06' W 070°54'0 0.0 220 / 71001.4 5.5 -0.0
2017-Nov-12 09:00S 53°06' W 070°54'0 0.0 240 / 41000.6 5.0 -0.0
2017-Nov-12 08:00S 53°06' W 070°54'0 0.0 240 / 5999.9 5.2 -0.0
2017-Nov-12 07:00S 53°06' W 070°54'0 0.0 230 / 8999.3 5.5 -0.0
2017-Nov-12 06:00S 53°06' W 070°54'0 0.0 220 / 7999.0 5.8 -0.0
2017-Nov-12 05:00S 53°06' W 070°54'0 0.0 220 / 5998.7 6.2 -0.0
2017-Nov-12 04:00S 53°06' W 070°54'0 0.0 220 / 4998.2 6.8 -0.0
2017-Nov-12 03:00S 53°06' W 070°54'0 0.0 220 / 5997.8 7.3 -0.0
2017-Nov-12 02:00S 53°06' W 070°54'0 0.0 190 / 6997.4 8.4 -0.0
2017-Nov-12 01:00S 53°06' W 070°54'0 0.0 220 / 8996.8 8.7 -0.0
2017-Nov-12 00:00S 53°06' W 070°54'0 0.0 220 / 13996.3 9.4 -0.0
2017-Nov-11 23:00S 53°06' W 070°54'0 0.0 230 / 8995.9 10.1 -0.0
2017-Nov-11 22:00S 53°06' W 070°54'0 0.0 080 / 3995.8 8.4 -0.0
2017-Nov-11 21:00S 53°06' W 070°54'0 0.0 100 / 7995.3 8.8 -0.0
2017-Nov-11 20:00S 53°06' W 070°54'0 0.0 200 / 10994.8 10.7 -0.0
2017-Nov-11 19:00S 53°06' W 070°54'0 0.0 050 / 3995.0 8.7 -0.0
2017-Nov-11 18:00S 53°06' W 070°54'0 0.0 140 / 8994.9 9.1 -0.0
2017-Nov-11 17:00S 53°06' W 070°54'0 0.0 060 / 3995.0 9.2 -0.0
2017-Nov-11 16:00S 53°06' W 070°54'0 0.0 340 / 1995.2 9.1 -0.0
2017-Nov-11 15:00S 53°06' W 070°54'0 0.0 020 / 2995.2 8.0 -0.0
2017-Nov-11 14:00S 53°06' W 070°54'0 0.0 080 / 2995.5 7.9 -0.0
2017-Nov-11 13:00S 53°06' W 070°54'0 0.0 170 / 1995.8 8.3 -0.0
2017-Nov-11 12:00S 53°06' W 070°54'0 0.0 010 / 2996.2 7.9 -0.0
2017-Nov-11 11:00S 53°06' W 070°54'0 0.0 020 / 4996.9 7.7 -0.0
2017-Nov-11 10:00S 53°06' W 070°54'0 0.0 997.4 7.9 -0.0
2017-Nov-11 09:00S 53°06' W 070°54'0 0.0 020 / 5998.2 7.7 -0.0
2017-Nov-11 08:00S 53°06' W 070°54'0 0.0 010 / 6999.0 8.0 -0.0
2017-Nov-11 07:00S 53°06' W 070°54'0 0.0 020 / 8999.5 8.1 -0.0
2017-Nov-11 06:00S 53°06' W 070°54'0 0.0 010 / 81000.4 8.6 -0.0
2017-Nov-11 05:00S 53°06' W 070°54'0 0.0 010 / 71001.5 9.0 -0.0
2017-Nov-11 04:00S 53°06' W 070°54'0 0.0 020 / 71002.3 9.8 -0.0
2017-Nov-11 03:00S 53°06' W 070°54'0 0.0 050 / 81002.7 10.1 -0.0
2017-Nov-11 02:00S 53°06' W 070°54'0 0.0 060 / 41003.3 10.6 -0.0
2017-Nov-11 01:00S 53°06' W 070°54'0 0.0 330 / 121002.9 10.9 -0.0
2017-Nov-11 00:00S 53°06' W 070°54'0 0.0 290 / 261002.2 11.5 -0.0
2017-Nov-10 23:00S 53°06' W 070°54'0 0.0 290 / 191003.0 12.3 -0.0
2017-Nov-10 22:00S 53°06' W 070°54'0 0.0 310 / 161003.6 12.9 -0.0
2017-Nov-10 21:00S 53°06' W 070°54'0 0.0 320 / 141004.2 12.7 -0.0
2017-Nov-10 20:00S 53°06' W 070°54'0 0.0 330 / 121005.0 11.7 -0.0
2017-Nov-10 19:00S 53°06' W 070°54'0 0.0 340 / 131005.9 10.6 -0.0
2017-Nov-10 18:00S 53°06' W 070°54'0 0.0 340 / 91006.6 10.4 -0.0
2017-Nov-10 17:00S 53°06' W 070°54'0 0.0 330 / 111007.4 11.0 -0.0
2017-Nov-10 16:00S 53°06' W 070°54'0 0.0 320 / 111008.1 10.8 -0.0
2017-Nov-10 15:00S 53°06' W 070°54'0 0.0 310 / 101008.5 10.8 -0.0
2017-Nov-10 14:00S 53°06' W 070°54'0 0.0 290 / 101008.8 10.2 -0.0
2017-Nov-10 13:00S 53°06' W 070°54'0 0.0 280 / 131009.4 9.2 -0.0
2017-Nov-10 12:00S 53°06' W 070°54'0 0.0 290 / 151009.4 8.9 -0.0
2017-Nov-10 11:00S 53°06' W 070°54'0 0.0 290 / 171009.1 8.5 -0.0
2017-Nov-10 10:00S 53°06' W 070°54'0 0.0 260 / 141008.8 7.9 -0.0
2017-Nov-10 09:00S 53°06' W 070°54'0 0.0 260 / 111008.7 7.5 -0.0
2017-Nov-10 08:00S 53°06' W 070°54'0 0.0 260 / 101008.3 7.5 -0.0
2017-Nov-10 07:00S 53°06' W 070°54'0 0.0 260 / 101007.9 8.4 -0.0
2017-Nov-10 06:00S 53°06' W 070°54'0 0.0 240 / 91007.4 8.7 -0.0
2017-Nov-10 05:00S 53°06' W 070°54'0 0.0 250 / 101006.5 9.2 -0.0
2017-Nov-10 04:00S 53°06' W 070°54'0 0.0 330 / 51006.1 8.2 -0.0
2017-Nov-10 03:00S 53°06' W 070°54'0 0.0 010 / 41006.0 7.6 -0.0
2017-Nov-10 02:00S 53°06' W 070°54'0 0.0 050 / 51005.8 7.5 -0.0
2017-Nov-10 01:00S 53°06' W 070°54'0 0.0 020 / 41005.7 8.0 -0.0
2017-Nov-10 00:00S 53°06' W 070°54'0 0.0 040 / 61005.1 8.4 -0.0
2017-Nov-09 23:00S 53°06' W 070°54'0 0.0 030 / 21005.0 9.1 -0.0
2017-Nov-09 22:00S 53°06' W 070°54'0 0.0 180 / 41004.6 9.5 -0.0
2017-Nov-09 21:00S 53°06' W 070°54'0 0.0 180 / 61005.1 10.2 -0.0
2017-Nov-09 20:00S 53°06' W 070°54'0 0.0 180 / 51005.8 10.1 -0.0
2017-Nov-09 19:00S 53°06' W 070°54'0 0.0 150 / 51006.5 9.8 -0.0
2017-Nov-09 18:00S 53°06' W 070°54'0 0.0 070 / 41007.2 9.1 -0.0
2017-Nov-09 17:00S 53°06' W 070°54'0 0.0 050 / 71007.9 8.7 -0.0
2017-Nov-09 16:00S 53°06' W 070°54'0 0.0 060 / 71008.8 7.8 -0.0
2017-Nov-09 15:00S 53°06' W 070°54'0 0.0 060 / 91009.5 7.4 -0.0
2017-Nov-09 14:00S 53°06' W 070°54'0 0.0 060 / 101010.1 7.3 -0.0
2017-Nov-09 13:00S 53°06' W 070°54'0 0.0 050 / 91010.6 7.1 -0.0
2017-Nov-09 12:00S 53°06' W 070°54'0 0.0 050 / 81010.9 6.9 -0.0
2017-Nov-09 11:00S 53°06' W 070°54'0 0.0 060 / 91011.0 6.9 -0.0
2017-Nov-09 10:00S 53°06' W 070°54'0 0.0 040 / 81011.2 6.6 -0.0
2017-Nov-09 09:00S 53°06' W 070°54'0 0.0 040 / 91011.4 6.5 -0.0
2017-Nov-09 08:00S 53°06' W 070°54'0 0.0 030 / 81011.7 6.5 -0.0
2017-Nov-09 07:00S 53°06' W 070°54'0 0.0 030 / 101011.9 6.8 -0.0
2017-Nov-09 06:00S 53°06' W 070°54'0 0.0 020 / 121012.1 7.4 -0.0
2017-Nov-09 05:00S 53°06' W 070°54'0 0.0 020 / 91012.6 7.9 -0.0
2017-Nov-09 04:00S 53°06' W 070°54'0 0.0 020 / 81012.9 8.4 -0.0
2017-Nov-09 03:00S 53°06' W 070°54'0 0.0 010 / 91013.0 9.1 -0.0
2017-Nov-09 02:00S 53°06' W 070°54'   010 / 71013.0 10.0 -0.0
Track history (hours):
 
Tides and Currents Weather Stations Pressure Air Temp Water Temp Dewpoint Dewpoint Depression Visibility Wind Speed Wind Dir Waves Ship Positions

Oceanographic research ship Nathaniel B. Palmer (USA)

Contact: Ethan Norris, ethan.norris.contractor@usap.gov

Detailed information on ship capabilities available from University of Delaware's Ocean Information Center and ARCUS's ALIAS (Arctic Logistics Information and Support) project.

Owner: OFFSHORE SERVICE VESSELS, GALLIANO, LA. More information available from US FCC via Universal Licensing System and Coast Guard Vessel Documentation Center.

Last reported at 2017-Nov-19 02:00 UTC. Time now 2017-Nov-19 03:14 UTC.
Position S 53°06' W 070°54'.

Type: Other ship. MMSI: 366610000.

Wind from 240 at 15 knots

Barometer 1000.5 mb
Air temperature 2.6 ° C
Water temperature -0.0 ° C

Date/timePositionNaut miles runAvg speedWind from/ knotsBaromVisibWave heightAir tempDewpointWater temp
2017-Nov-19 02:00S 53°06' W 070°54'0 0.0 240 / 151000.5 2.6 -0.0
2017-Nov-19 01:00S 53°06' W 070°54'4 3.6 250 / 141000.0 3.2 -0.0
2017-Nov-19 00:00S 53°06' W 070°48'0 0.0 240 / 91000.1 2.9 -0.0
2017-Nov-18 23:00S 53°06' W 070°48'0 0.0 250 / 21999.4 3.0 -0.0
2017-Nov-18 22:00S 53°06' W 070°48'0 0.0 250 / 21998.5 3.1 -0.0
2017-Nov-18 21:00S 53°06' W 070°48'0 0.0 260 / 24997.8 3.8 -0.0
2017-Nov-18 20:00S 53°06' W 070°48'0 0.0 230 / 29996.9 5.6 -0.0
2017-Nov-18 19:00S 53°06' W 070°48'0 0.0 250 / 27996.2 4.3 -0.0
2017-Nov-18 18:00S 53°06' W 070°48'0 0.0 240 / 29996.1 4.0 -0.0
2017-Nov-18 17:00S 53°06' W 070°48'0 0.0 250 / 27995.3 4.6 -0.0
2017-Nov-18 16:00S 53°06' W 070°48'0 0.0 260 / 26995.2 4.6 -0.0
2017-Nov-18 15:00S 53°06' W 070°48'0 0.0 250 / 25995.3 3.7 -0.0
2017-Nov-18 14:00S 53°06' W 070°48'0 0.0 250 / 27994.7 6.1 -0.0
2017-Nov-18 13:00S 53°06' W 070°48'   260 / 29994.6 6.1 -0.0
2017-Nov-13 14:00S 53°06' W 070°54'0 0.0 070 / 91006.3 7.8 -0.0
2017-Nov-13 13:00S 53°06' W 070°54'0 0.0 100 / 41007.0 8.8 -0.0
2017-Nov-13 12:00S 53°06' W 070°54'0 0.0 260 / 51007.6 8.2 -0.0
2017-Nov-13 11:00S 53°06' W 070°54'0 0.0 290 / 71008.2 7.8 -0.0
2017-Nov-13 10:00S 53°06' W 070°54'0 0.0 280 / 61008.3 6.4 -0.0
2017-Nov-13 09:00S 53°06' W 070°54'0 0.0 260 / 31008.4 6.7 -0.0
2017-Nov-13 08:00S 53°06' W 070°54'0 0.0 220 / 61008.5 7.4 -0.0
2017-Nov-13 07:00S 53°06' W 070°54'0 0.0 220 / 121008.1 7.5 -0.0
2017-Nov-13 06:00S 53°06' W 070°54'0 0.0 260 / 81008.4 7.5 -0.0
2017-Nov-13 05:00S 53°06' W 070°54'0 0.0 220 / 81008.7 7.6 -0.0
2017-Nov-13 04:00S 53°06' W 070°54'0 0.0 180 / 61008.7 7.7 -0.0
2017-Nov-13 03:00S 53°06' W 070°54'0 0.0 210 / 41008.4 8.1 -0.0
2017-Nov-13 02:00S 53°06' W 070°54'0 0.0 260 / 111008.1 8.4 -0.0
2017-Nov-13 01:00S 53°06' W 070°54'0 0.0 250 / 111007.9 9.1 -0.0
2017-Nov-13 00:00S 53°06' W 070°54'0 0.0 260 / 121007.4 10.2 -0.0
2017-Nov-12 23:00S 53°06' W 070°54'0 0.0 260 / 111007.0 10.7 -0.0
2017-Nov-12 22:00S 53°06' W 070°54'0 0.0 250 / 131006.4 10.8 -0.0
2017-Nov-12 21:00S 53°06' W 070°54'0 0.0 260 / 161006.1 11.2 -0.0
2017-Nov-12 20:00S 53°06' W 070°54'0 0.0 260 / 151005.5 11.3 -0.0
2017-Nov-12 19:00S 53°06' W 070°54'0 0.0 260 / 131005.4 10.8 -0.0
2017-Nov-12 18:00S 53°06' W 070°54'0 0.0 050 / 71005.5 8.2 -0.0
2017-Nov-12 17:00S 53°06' W 070°54'0 0.0 090 / 61005.5 7.4 -0.0
2017-Nov-12 16:00S 53°06' W 070°54'0 0.0 100 / 71005.2 7.3 -0.0
2017-Nov-12 15:00S 53°06' W 070°54'0 0.0 230 / 91004.7 8.6 -0.0
2017-Nov-12 14:00S 53°06' W 070°54'0 0.0 250 / 71004.4 8.5 -0.0
2017-Nov-12 13:00S 53°06' W 070°54'0 0.0 160 / 111003.7 7.1 -0.0
2017-Nov-12 12:00S 53°06' W 070°54'0 0.0 210 / 81002.9 8.3 -0.0
2017-Nov-12 11:00S 53°06' W 070°54'0 0.0 220 / 71002.2 6.5 -0.0
2017-Nov-12 10:00S 53°06' W 070°54'0 0.0 220 / 71001.4 5.5 -0.0
2017-Nov-12 09:00S 53°06' W 070°54'0 0.0 240 / 41000.6 5.0 -0.0
2017-Nov-12 08:00S 53°06' W 070°54'0 0.0 240 / 5999.9 5.2 -0.0
2017-Nov-12 07:00S 53°06' W 070°54'0 0.0 230 / 8999.3 5.5 -0.0
2017-Nov-12 06:00S 53°06' W 070°54'0 0.0 220 / 7999.0 5.8 -0.0
2017-Nov-12 05:00S 53°06' W 070°54'0 0.0 220 / 5998.7 6.2 -0.0
2017-Nov-12 04:00S 53°06' W 070°54'0 0.0 220 / 4998.2 6.8 -0.0
2017-Nov-12 03:00S 53°06' W 070°54'0 0.0 220 / 5997.8 7.3 -0.0
2017-Nov-12 02:00S 53°06' W 070°54'0 0.0 190 / 6997.4 8.4 -0.0
2017-Nov-12 01:00S 53°06' W 070°54'0 0.0 220 / 8996.8 8.7 -0.0
2017-Nov-12 00:00S 53°06' W 070°54'0 0.0 220 / 13996.3 9.4 -0.0
2017-Nov-11 23:00S 53°06' W 070°54'0 0.0 230 / 8995.9 10.1 -0.0
2017-Nov-11 22:00S 53°06' W 070°54'0 0.0 080 / 3995.8 8.4 -0.0
2017-Nov-11 21:00S 53°06' W 070°54'0 0.0 100 / 7995.3 8.8 -0.0
2017-Nov-11 20:00S 53°06' W 070°54'0 0.0 200 / 10994.8 10.7 -0.0
2017-Nov-11 19:00S 53°06' W 070°54'0 0.0 050 / 3995.0 8.7 -0.0
2017-Nov-11 18:00S 53°06' W 070°54'0 0.0 140 / 8994.9 9.1 -0.0
2017-Nov-11 17:00S 53°06' W 070°54'0 0.0 060 / 3995.0 9.2 -0.0
2017-Nov-11 16:00S 53°06' W 070°54'0 0.0 340 / 1995.2 9.1 -0.0
2017-Nov-11 15:00S 53°06' W 070°54'0 0.0 020 / 2995.2 8.0 -0.0
2017-Nov-11 14:00S 53°06' W 070°54'0 0.0 080 / 2995.5 7.9 -0.0
2017-Nov-11 13:00S 53°06' W 070°54'0 0.0 170 / 1995.8 8.3 -0.0
2017-Nov-11 12:00S 53°06' W 070°54'0 0.0 010 / 2996.2 7.9 -0.0
2017-Nov-11 11:00S 53°06' W 070°54'0 0.0 020 / 4996.9 7.7 -0.0
2017-Nov-11 10:00S 53°06' W 070°54'0 0.0 997.4 7.9 -0.0
2017-Nov-11 09:00S 53°06' W 070°54'0 0.0 020 / 5998.2 7.7 -0.0
2017-Nov-11 08:00S 53°06' W 070°54'0 0.0 010 / 6999.0 8.0 -0.0
2017-Nov-11 07:00S 53°06' W 070°54'0 0.0 020 / 8999.5 8.1 -0.0
2017-Nov-11 06:00S 53°06' W 070°54'0 0.0 010 / 81000.4 8.6 -0.0
2017-Nov-11 05:00S 53°06' W 070°54'0 0.0 010 / 71001.5 9.0 -0.0
2017-Nov-11 04:00S 53°06' W 070°54'0 0.0 020 / 71002.3 9.8 -0.0
2017-Nov-11 03:00S 53°06' W 070°54'0 0.0 050 / 81002.7 10.1 -0.0
2017-Nov-11 02:00S 53°06' W 070°54'0 0.0 060 / 41003.3 10.6 -0.0
2017-Nov-11 01:00S 53°06' W 070°54'0 0.0 330 / 121002.9 10.9 -0.0
2017-Nov-11 00:00S 53°06' W 070°54'0 0.0 290 / 261002.2 11.5 -0.0
2017-Nov-10 23:00S 53°06' W 070°54'0 0.0 290 / 191003.0 12.3 -0.0
2017-Nov-10 22:00S 53°06' W 070°54'0 0.0 310 / 161003.6 12.9 -0.0
2017-Nov-10 21:00S 53°06' W 070°54'0 0.0 320 / 141004.2 12.7 -0.0
2017-Nov-10 20:00S 53°06' W 070°54'0 0.0 330 / 121005.0 11.7 -0.0
2017-Nov-10 19:00S 53°06' W 070°54'0 0.0 340 / 131005.9 10.6 -0.0
2017-Nov-10 18:00S 53°06' W 070°54'0 0.0 340 / 91006.6 10.4 -0.0
2017-Nov-10 17:00S 53°06' W 070°54'0 0.0 330 / 111007.4 11.0 -0.0
2017-Nov-10 16:00S 53°06' W 070°54'0 0.0 320 / 111008.1 10.8 -0.0
2017-Nov-10 15:00S 53°06' W 070°54'0 0.0 310 / 101008.5 10.8 -0.0
2017-Nov-10 14:00S 53°06' W 070°54'0 0.0 290 / 101008.8 10.2 -0.0
2017-Nov-10 13:00S 53°06' W 070°54'0 0.0 280 / 131009.4 9.2 -0.0
2017-Nov-10 12:00S 53°06' W 070°54'0 0.0 290 / 151009.4 8.9 -0.0
2017-Nov-10 11:00S 53°06' W 070°54'0 0.0 290 / 171009.1 8.5 -0.0
2017-Nov-10 10:00S 53°06' W 070°54'0 0.0 260 / 141008.8 7.9 -0.0
2017-Nov-10 09:00S 53°06' W 070°54'0 0.0 260 / 111008.7 7.5 -0.0
2017-Nov-10 08:00S 53°06' W 070°54'0 0.0 260 / 101008.3 7.5 -0.0
2017-Nov-10 07:00S 53°06' W 070°54'0 0.0 260 / 101007.9 8.4 -0.0
2017-Nov-10 06:00S 53°06' W 070°54'0 0.0 240 / 91007.4 8.7 -0.0
2017-Nov-10 05:00S 53°06' W 070°54'0 0.0 250 / 101006.5 9.2 -0.0
2017-Nov-10 04:00S 53°06' W 070°54'0 0.0 330 / 51006.1 8.2 -0.0
2017-Nov-10 03:00S 53°06' W 070°54'0 0.0 010 / 41006.0 7.6 -0.0
2017-Nov-10 02:00S 53°06' W 070°54'0 0.0 050 / 51005.8 7.5 -0.0
2017-Nov-10 01:00S 53°06' W 070°54'0 0.0 020 / 41005.7 8.0 -0.0
2017-Nov-10 00:00S 53°06' W 070°54'0 0.0 040 / 61005.1 8.4 -0.0
2017-Nov-09 23:00S 53°06' W 070°54'0 0.0 030 / 21005.0 9.1 -0.0
2017-Nov-09 22:00S 53°06' W 070°54'0 0.0 180 / 41004.6 9.5 -0.0
2017-Nov-09 21:00S 53°06' W 070°54'0 0.0 180 / 61005.1 10.2 -0.0
2017-Nov-09 20:00S 53°06' W 070°54'0 0.0 180 / 51005.8 10.1 -0.0
2017-Nov-09 19:00S 53°06' W 070°54'0 0.0 150 / 51006.5 9.8 -0.0
2017-Nov-09 18:00S 53°06' W 070°54'0 0.0 070 / 41007.2 9.1 -0.0
2017-Nov-09 17:00S 53°06' W 070°54'0 0.0 050 / 71007.9 8.7 -0.0
2017-Nov-09 16:00S 53°06' W 070°54'0 0.0 060 / 71008.8 7.8 -0.0
2017-Nov-09 15:00S 53°06' W 070°54'0 0.0 060 / 91009.5 7.4 -0.0
2017-Nov-09 14:00S 53°06' W 070°54'0 0.0 060 / 101010.1 7.3 -0.0
2017-Nov-09 13:00S 53°06' W 070°54'0 0.0 050 / 91010.6 7.1 -0.0
2017-Nov-09 12:00S 53°06' W 070°54'0 0.0 050 / 81010.9 6.9 -0.0
2017-Nov-09 11:00S 53°06' W 070°54'0 0.0 060 / 91011.0 6.9 -0.0
2017-Nov-09 10:00S 53°06' W 070°54'0 0.0 040 / 81011.2 6.6 -0.0
2017-Nov-09 09:00S 53°06' W 070°54'0 0.0 040 / 91011.4 6.5 -0.0
2017-Nov-09 08:00S 53°06' W 070°54'0 0.0 030 / 81011.7 6.5 -0.0
2017-Nov-09 07:00S 53°06' W 070°54'0 0.0 030 / 101011.9 6.8 -0.0
2017-Nov-09 06:00S 53°06' W 070°54'0 0.0 020 / 121012.1 7.4 -0.0
2017-Nov-09 05:00S 53°06' W 070°54'0 0.0 020 / 91012.6 7.9 -0.0
2017-Nov-09 04:00S 53°06' W 070°54'0 0.0 020 / 81012.9 8.4 -0.0
2017-Nov-09 03:00S 53°06' W 070°54'0 0.0 010 / 91013.0 9.1 -0.0
2017-Nov-09 02:00S 53°06' W 070°54'   010 / 71013.0 10.0 -0.0

Dump ship's entire track history